Newhall, CA (91321)

5:33 AM PDT on November 01, 2014 (GMT -0700)
Friendly Valley, Newhall 91321 | Change Station
CLOSE
Current Station
Personal Weather Station
Location: Newhall, CA
Elevation: 1631 ft
Nearby Weather Stations
Active Advisory: Special Statement

Elev 1631 ft 34.40 °N, 118.48 °W | Updated 15 seconds ago

Partly Cloudy
Partly Cloudy
51.6 °F
Feels Like 51.6 °F
N
0.0
Wind Variable Wind from SSW
Gusts 2.0 mph

Today
High -- | Low -- °F
--% Chance of Precip.
Yesterday
High -- | Low -- °F
Precip. -- in
7:14 AM 6:00 PM
Waxing Gibbous, 66% visible
Pressure 29.86 in
Visibility 4.0 miles
Clouds Scattered Clouds 3000 ft
Mostly Cloudy 3600 ft
Overcast 5000 ft
Dew Point 50 °F
Humidity 95%
Rainfall 0.20 in
Snow Depth Not available.
UV 0 out of 12
Pollen .60 out of 12
Air Quality Not available.
Flu Activity Not available.
METAR KVNY 011151Z AUTO 20003KT 4SM -RA BR SCT030 BKN036 OVC050 13/11 A2987 RMK AO2 RAB37 SLP110 P0003 60025 70025 T01280111 10167 20122 51011

More Conditions Fewer Conditions

Pressure 29.86 in
Visibility 4.0 miles
Clouds Scattered Clouds 3000 ft
Mostly Cloudy 3600 ft
Overcast 5000 ft
Dew Point 50 °F
Humidity 95%
Rainfall 0.20 in
Snow Depth Not available.
UV 0 out of 12
Pollen .60 out of 12
Air Quality Not available.
Flu Activity Not available.
METAR KVNY 011151Z AUTO 20003KT 4SM -RA BR SCT030 BKN036 OVC050 13/11 A2987 RMK AO2 RAB37 SLP110 P0003 60025 70025 T01280111 10167 20122 51011

More Conditions Fewer Conditions

10-Day Weather Forecast

Almanac

Astronomy

Nov. 01, 2014 Rise Set
Actual Time
Civil Twilight
Nautical Twilight
Astronomical Twilight
Moon
Length of Visible Light
Length of Day
Tomorrow will be .
, % of the Moon is Illuminated

Today's Extremes

State Highs State Lows

Community

WunderPhotos

Upload Photos

1,766,912 photos uploaded!

WunderBlogs® & News

Nearby

Air Quality

  Air Quality AQ Index Pollutant
Not available.

Snow Depth

Station Depth Elevation

Earthquake Activity

City Distance Mag. Time & Date
Minimum magnitude displayed is 2.5.

Coastal Water Temperatures

Place Temperature

Nearby Weather Stations